sensor_id;sensor_type;location;lat;lon;timestamp;P1;durP1;ratioP1;P2;durP2;ratioP2
23561;SDS011;11959;49.418;8.728;2023-05-07T00:01:37;2.83;;;2.10;;
23561;SDS011;11959;49.418;8.728;2023-05-07T00:04:03;3.38;;;2.17;;
23561;SDS011;11959;49.418;8.728;2023-05-07T00:06:29;5.38;;;2.30;;
23561;SDS011;11959;49.418;8.728;2023-05-07T00:08:56;4.07;;;2.10;;
23561;SDS011;11959;49.418;8.728;2023-05-07T00:11:22;3.38;;;2.28;;
23561;SDS011;11959;49.418;8.728;2023-05-07T00:13:48;3.50;;;2.25;;
23561;SDS011;11959;49.418;8.728;2023-05-07T00:16:14;4.28;;;2.30;;
23561;SDS011;11959;49.418;8.728;2023-05-07T00:18:39;2.85;;;2.15;;
23561;SDS011;11959;49.418;8.728;2023-05-07T00:21:05;2.70;;;1.83;;
23561;SDS011;11959;49.418;8.728;2023-05-07T00:23:31;4.70;;;1.95;;
23561;SDS011;11959;49.418;8.728;2023-05-07T00:25:56;3.92;;;2.00;;
23561;SDS011;11959;49.418;8.728;2023-05-07T00:28:22;4.32;;;1.77;;
23561;SDS011;11959;49.418;8.728;2023-05-07T00:30:47;2.30;;;1.90;;
23561;SDS011;11959;49.418;8.728;2023-05-07T00:33:13;2.88;;;1.88;;
23561;SDS011;11959;49.418;8.728;2023-05-07T00:35:39;2.13;;;1.60;;
23561;SDS011;11959;49.418;8.728;2023-05-07T00:38:04;4.95;;;1.92;;
23561;SDS011;11959;49.418;8.728;2023-05-07T00:40:30;2.63;;;2.08;;
23561;SDS011;11959;49.418;8.728;2023-05-07T00:42:56;2.70;;;1.88;;
23561;SDS011;11959;49.418;8.728;2023-05-07T00:45:23;2.60;;;1.70;;
23561;SDS011;11959;49.418;8.728;2023-05-07T00:47:55;3.00;;;1.70;;
23561;SDS011;11959;49.418;8.728;2023-05-07T00:50:22;4.75;;;1.70;;
23561;SDS011;11959;49.418;8.728;2023-05-07T00:52:48;2.58;;;1.55;;
23561;SDS011;11959;49.418;8.728;2023-05-07T00:55:14;3.08;;;1.83;;
23561;SDS011;11959;49.418;8.728;2023-05-07T00:57:40;2.92;;;1.60;;
23561;SDS011;11959;49.418;8.728;2023-05-07T01:00:07;3.33;;;1.70;;
23561;SDS011;11959;49.418;8.728;2023-05-07T01:02:34;3.60;;;1.70;;
23561;SDS011;11959;49.418;8.728;2023-05-07T01:05:01;2.40;;;1.77;;
23561;SDS011;11959;49.418;8.728;2023-05-07T01:07:29;3.25;;;1.80;;
23561;SDS011;11959;49.418;8.728;2023-05-07T01:09:55;3.10;;;1.80;;
23561;SDS011;11959;49.418;8.728;2023-05-07T01:12:22;2.80;;;1.60;;
23561;SDS011;11959;49.418;8.728;2023-05-07T01:14:49;2.92;;;1.70;;
23561;SDS011;11959;49.418;8.728;2023-05-07T01:17:15;2.65;;;1.70;;
23561;SDS011;11959;49.418;8.728;2023-05-07T01:19:42;3.15;;;1.83;;
23561;SDS011;11959;49.418;8.728;2023-05-07T01:22:08;3.28;;;1.98;;
23561;SDS011;11959;49.418;8.728;2023-05-07T01:24:36;3.28;;;2.03;;
23561;SDS011;11959;49.418;8.728;2023-05-07T01:27:02;3.45;;;1.90;;
23561;SDS011;11959;49.418;8.728;2023-05-07T01:29:29;3.35;;;2.10;;
23561;SDS011;11959;49.418;8.728;2023-05-07T01:31:58;2.88;;;1.83;;
23561;SDS011;11959;49.418;8.728;2023-05-07T01:34:25;3.08;;;1.90;;
23561;SDS011;11959;49.418;8.728;2023-05-07T01:36:53;3.03;;;1.88;;
23561;SDS011;11959;49.418;8.728;2023-05-07T01:39:21;2.50;;;2.00;;
23561;SDS011;11959;49.418;8.728;2023-05-07T01:41:49;3.40;;;1.60;;
23561;SDS011;11959;49.418;8.728;2023-05-07T01:44:15;3.80;;;1.92;;
23561;SDS011;11959;49.418;8.728;2023-05-07T01:46:43;3.17;;;1.92;;
23561;SDS011;11959;49.418;8.728;2023-05-07T01:49:09;3.25;;;1.77;;
23561;SDS011;11959;49.418;8.728;2023-05-07T01:51:34;2.28;;;1.85;;
23561;SDS011;11959;49.418;8.728;2023-05-07T01:54:01;2.85;;;1.75;;
23561;SDS011;11959;49.418;8.728;2023-05-07T01:56:26;3.92;;;2.00;;
23561;SDS011;11959;49.418;8.728;2023-05-07T01:58:52;3.38;;;1.95;;
23561;SDS011;11959;49.418;8.728;2023-05-07T02:01:18;3.20;;;2.20;;
23561;SDS011;11959;49.418;8.728;2023-05-07T02:03:43;2.10;;;1.80;;
23561;SDS011;11959;49.418;8.728;2023-05-07T02:06:09;3.88;;;1.90;;
23561;SDS011;11959;49.418;8.728;2023-05-07T02:08:35;2.63;;;1.90;;
23561;SDS011;11959;49.418;8.728;2023-05-07T02:11:00;2.13;;;1.90;;
23561;SDS011;11959;49.418;8.728;2023-05-07T02:13:28;4.18;;;2.25;;
23561;SDS011;11959;49.418;8.728;2023-05-07T02:15:55;3.83;;;2.00;;
23561;SDS011;11959;49.418;8.728;2023-05-07T02:18:21;4.70;;;2.40;;
23561;SDS011;11959;49.418;8.728;2023-05-07T02:20:46;3.17;;;2.38;;
23561;SDS011;11959;49.418;8.728;2023-05-07T02:23:12;3.78;;;2.00;;
23561;SDS011;11959;49.418;8.728;2023-05-07T02:25:38;3.00;;;2.20;;
23561;SDS011;11959;49.418;8.728;2023-05-07T02:28:03;2.47;;;2.28;;
23561;SDS011;11959;49.418;8.728;2023-05-07T02:30:29;3.55;;;2.40;;
23561;SDS011;11959;49.418;8.728;2023-05-07T02:32:54;4.63;;;2.63;;
23561;SDS011;11959;49.418;8.728;2023-05-07T02:35:20;2.75;;;2.22;;
23561;SDS011;11959;49.418;8.728;2023-05-07T02:37:46;4.55;;;2.30;;
23561;SDS011;11959;49.418;8.728;2023-05-07T02:40:11;2.63;;;2.17;;
23561;SDS011;11959;49.418;8.728;2023-05-07T02:42:37;2.42;;;2.03;;
23561;SDS011;11959;49.418;8.728;2023-05-07T02:45:03;2.65;;;2.33;;
23561;SDS011;11959;49.418;8.728;2023-05-07T02:47:29;3.58;;;2.15;;
23561;SDS011;11959;49.418;8.728;2023-05-07T02:49:55;2.50;;;2.03;;
23561;SDS011;11959;49.418;8.728;2023-05-07T02:52:21;3.25;;;2.35;;
23561;SDS011;11959;49.418;8.728;2023-05-07T02:54:46;3.97;;;2.22;;
23561;SDS011;11959;49.418;8.728;2023-05-07T02:57:12;3.38;;;2.15;;
23561;SDS011;11959;49.418;8.728;2023-05-07T02:59:38;4.05;;;2.30;;
23561;SDS011;11959;49.418;8.728;2023-05-07T03:02:03;5.10;;;2.08;;
23561;SDS011;11959;49.418;8.728;2023-05-07T03:04:29;4.43;;;2.30;;
23561;SDS011;11959;49.418;8.728;2023-05-07T03:06:55;2.08;;;1.75;;
23561;SDS011;11959;49.418;8.728;2023-05-07T03:09:20;3.40;;;2.22;;
23561;SDS011;11959;49.418;8.728;2023-05-07T03:11:46;3.65;;;2.30;;
23561;SDS011;11959;49.418;8.728;2023-05-07T03:14:11;2.38;;;2.08;;
23561;SDS011;11959;49.418;8.728;2023-05-07T03:16:37;2.53;;;1.80;;
23561;SDS011;11959;49.418;8.728;2023-05-07T03:19:04;2.03;;;1.52;;
23561;SDS011;11959;49.418;8.728;2023-05-07T03:21:31;4.38;;;1.90;;
23561;SDS011;11959;49.418;8.728;2023-05-07T03:23:58;2.95;;;2.10;;
23561;SDS011;11959;49.418;8.728;2023-05-07T03:26:25;2.67;;;1.90;;
23561;SDS011;11959;49.418;8.728;2023-05-07T03:28:50;2.35;;;1.70;;
23561;SDS011;11959;49.418;8.728;2023-05-07T03:31:16;3.88;;;1.83;;
23561;SDS011;11959;49.418;8.728;2023-05-07T03:33:55;2.80;;;2.00;;
23561;SDS011;11959;49.418;8.728;2023-05-07T03:36:22;2.45;;;1.90;;
23561;SDS011;11959;49.418;8.728;2023-05-07T03:38:48;2.72;;;1.90;;
23561;SDS011;11959;49.418;8.728;2023-05-07T03:41:14;2.83;;;1.92;;
23561;SDS011;11959;49.418;8.728;2023-05-07T03:43:40;1.80;;;1.70;;
23561;SDS011;11959;49.418;8.728;2023-05-07T03:46:06;3.15;;;1.98;;
23561;SDS011;11959;49.418;8.728;2023-05-07T03:48:32;2.65;;;1.98;;
23561;SDS011;11959;49.418;8.728;2023-05-07T03:50:58;3.25;;;2.13;;
23561;SDS011;11959;49.418;8.728;2023-05-07T03:53:24;3.42;;;2.10;;
23561;SDS011;11959;49.418;8.728;2023-05-07T03:55:50;2.85;;;2.08;;
23561;SDS011;11959;49.418;8.728;2023-05-07T03:58:16;2.85;;;2.13;;
23561;SDS011;11959;49.418;8.728;2023-05-07T04:00:41;2.75;;;1.88;;
23561;SDS011;11959;49.418;8.728;2023-05-07T04:03:07;4.07;;;2.28;;
23561;SDS011;11959;49.418;8.728;2023-05-07T04:05:33;3.28;;;2.42;;
23561;SDS011;11959;49.418;8.728;2023-05-07T04:07:59;4.20;;;2.17;;
23561;SDS011;11959;49.418;8.728;2023-05-07T04:10:25;3.08;;;2.35;;
23561;SDS011;11959;49.418;8.728;2023-05-07T04:12:51;2.75;;;2.28;;
23561;SDS011;11959;49.418;8.728;2023-05-07T04:15:16;3.67;;;2.20;;
23561;SDS011;11959;49.418;8.728;2023-05-07T04:17:42;2.65;;;1.83;;
23561;SDS011;11959;49.418;8.728;2023-05-07T04:20:08;3.20;;;2.33;;
23561;SDS011;11959;49.418;8.728;2023-05-07T04:22:35;3.33;;;2.28;;
23561;SDS011;11959;49.418;8.728;2023-05-07T04:25:02;2.92;;;2.10;;
23561;SDS011;11959;49.418;8.728;2023-05-07T04:27:28;2.33;;;1.90;;
23561;SDS011;11959;49.418;8.728;2023-05-07T04:29:54;2.85;;;1.92;;
23561;SDS011;11959;49.418;8.728;2023-05-07T04:32:21;2.72;;;2.08;;
23561;SDS011;11959;49.418;8.728;2023-05-07T04:34:48;3.00;;;2.10;;
23561;SDS011;11959;49.418;8.728;2023-05-07T04:37:14;5.00;;;2.15;;
23561;SDS011;11959;49.418;8.728;2023-05-07T04:39:41;3.42;;;2.00;;
23561;SDS011;11959;49.418;8.728;2023-05-07T04:42:14;3.33;;;2.03;;
23561;SDS011;11959;49.418;8.728;2023-05-07T04:44:42;3.70;;;2.10;;
23561;SDS011;11959;49.418;8.728;2023-05-07T04:47:08;3.17;;;2.08;;
23561;SDS011;11959;49.418;8.728;2023-05-07T04:49:33;2.72;;;1.88;;
23561;SDS011;11959;49.418;8.728;2023-05-07T04:51:59;2.00;;;1.73;;
23561;SDS011;11959;49.418;8.728;2023-05-07T04:54:25;3.60;;;1.90;;
23561;SDS011;11959;49.418;8.728;2023-05-07T04:56:51;2.67;;;1.83;;
23561;SDS011;11959;49.418;8.728;2023-05-07T04:59:17;4.28;;;2.10;;
23561;SDS011;11959;49.418;8.728;2023-05-07T05:01:43;3.92;;;1.90;;
23561;SDS011;11959;49.418;8.728;2023-05-07T05:04:08;3.97;;;2.15;;
23561;SDS011;11959;49.418;8.728;2023-05-07T05:06:35;2.35;;;1.80;;
23561;SDS011;11959;49.418;8.728;2023-05-07T05:09:01;3.88;;;2.10;;
23561;SDS011;11959;49.418;8.728;2023-05-07T05:11:26;3.88;;;2.10;;
23561;SDS011;11959;49.418;8.728;2023-05-07T05:13:52;4.63;;;1.90;;
23561;SDS011;11959;49.418;8.728;2023-05-07T05:16:18;2.70;;;1.80;;
23561;SDS011;11959;49.418;8.728;2023-05-07T05:18:44;3.33;;;1.90;;
23561;SDS011;11959;49.418;8.728;2023-05-07T05:21:09;2.70;;;1.95;;
23561;SDS011;11959;49.418;8.728;2023-05-07T05:23:35;1.92;;;1.73;;
23561;SDS011;11959;49.418;8.728;2023-05-07T05:26:01;3.28;;;1.95;;
23561;SDS011;11959;49.418;8.728;2023-05-07T05:28:26;2.38;;;2.17;;
23561;SDS011;11959;49.418;8.728;2023-05-07T05:30:52;2.17;;;1.70;;
23561;SDS011;11959;49.418;8.728;2023-05-07T05:33:18;3.78;;;1.92;;
23561;SDS011;11959;49.418;8.728;2023-05-07T05:35:44;3.55;;;2.10;;
23561;SDS011;11959;49.418;8.728;2023-05-07T05:38:10;2.03;;;1.80;;
23561;SDS011;11959;49.418;8.728;2023-05-07T05:40:36;2.15;;;1.85;;
23561;SDS011;11959;49.418;8.728;2023-05-07T05:43:01;3.08;;;1.80;;
23561;SDS011;11959;49.418;8.728;2023-05-07T05:45:27;2.40;;;1.90;;
23561;SDS011;11959;49.418;8.728;2023-05-07T05:47:53;2.97;;;1.75;;
23561;SDS011;11959;49.418;8.728;2023-05-07T05:50:24;2.08;;;1.80;;
23561;SDS011;11959;49.418;8.728;2023-05-07T05:52:51;3.00;;;2.08;;
23561;SDS011;11959;49.418;8.728;2023-05-07T05:55:17;3.25;;;2.13;;
23561;SDS011;11959;49.418;8.728;2023-05-07T05:57:42;2.10;;;1.90;;
23561;SDS011;11959;49.418;8.728;2023-05-07T06:00:08;3.15;;;1.80;;
23561;SDS011;11959;49.418;8.728;2023-05-07T06:02:38;2.17;;;1.98;;
23561;SDS011;11959;49.418;8.728;2023-05-07T06:05:08;3.65;;;1.77;;
23561;SDS011;11959;49.418;8.728;2023-05-07T06:07:36;4.07;;;1.92;;
23561;SDS011;11959;49.418;8.728;2023-05-07T06:10:03;2.88;;;1.70;;
23561;SDS011;11959;49.418;8.728;2023-05-07T06:12:29;2.58;;;1.83;;
23561;SDS011;11959;49.418;8.728;2023-05-07T06:14:54;4.45;;;1.70;;
23561;SDS011;11959;49.418;8.728;2023-05-07T06:17:20;2.13;;;1.50;;
23561;SDS011;11959;49.418;8.728;2023-05-07T06:19:46;1.88;;;1.60;;
23561;SDS011;11959;49.418;8.728;2023-05-07T06:22:11;2.58;;;1.80;;
23561;SDS011;11959;49.418;8.728;2023-05-07T06:24:37;1.67;;;1.33;;
23561;SDS011;11959;49.418;8.728;2023-05-07T06:27:03;3.08;;;1.92;;
23561;SDS011;11959;49.418;8.728;2023-05-07T06:29:28;2.63;;;2.00;;
23561;SDS011;11959;49.418;8.728;2023-05-07T06:31:56;2.38;;;1.80;;
23561;SDS011;11959;49.418;8.728;2023-05-07T06:34:30;2.67;;;1.38;;
23561;SDS011;11959;49.418;8.728;2023-05-07T06:36:56;2.17;;;1.63;;
23561;SDS011;11959;49.418;8.728;2023-05-07T06:39:22;2.33;;;1.85;;
23561;SDS011;11959;49.418;8.728;2023-05-07T06:41:48;1.85;;;1.73;;
23561;SDS011;11959;49.418;8.728;2023-05-07T06:44:13;2.30;;;1.75;;
23561;SDS011;11959;49.418;8.728;2023-05-07T06:46:40;2.17;;;1.77;;
23561;SDS011;11959;49.418;8.728;2023-05-07T06:49:06;2.85;;;1.75;;
23561;SDS011;11959;49.418;8.728;2023-05-07T06:51:32;1.98;;;1.70;;
23561;SDS011;11959;49.418;8.728;2023-05-07T06:53:58;2.15;;;1.40;;
23561;SDS011;11959;49.418;8.728;2023-05-07T06:56:23;2.70;;;1.60;;
23561;SDS011;11959;49.418;8.728;2023-05-07T06:58:50;2.63;;;1.67;;
23561;SDS011;11959;49.418;8.728;2023-05-07T07:01:16;4.50;;;1.80;;
23561;SDS011;11959;49.418;8.728;2023-05-07T07:03:41;2.38;;;1.70;;
23561;SDS011;11959;49.418;8.728;2023-05-07T07:06:07;1.88;;;1.40;;
23561;SDS011;11959;49.418;8.728;2023-05-07T07:08:33;1.55;;;1.40;;
23561;SDS011;11959;49.418;8.728;2023-05-07T07:10:59;1.77;;;1.48;;
23561;SDS011;11959;49.418;8.728;2023-05-07T07:13:26;3.10;;;1.80;;
23561;SDS011;11959;49.418;8.728;2023-05-07T07:15:51;1.92;;;1.60;;
23561;SDS011;11959;49.418;8.728;2023-05-07T07:18:18;2.67;;;1.70;;
23561;SDS011;11959;49.418;8.728;2023-05-07T07:20:43;3.17;;;1.40;;
23561;SDS011;11959;49.418;8.728;2023-05-07T07:23:09;1.70;;;1.40;;
23561;SDS011;11959;49.418;8.728;2023-05-07T07:25:35;2.55;;;1.50;;
23561;SDS011;11959;49.418;8.728;2023-05-07T07:28:01;1.83;;;1.50;;
23561;SDS011;11959;49.418;8.728;2023-05-07T07:30:27;3.08;;;1.50;;
23561;SDS011;11959;49.418;8.728;2023-05-07T07:32:53;2.15;;;1.40;;
23561;SDS011;11959;49.418;8.728;2023-05-07T07:35:20;1.92;;;1.73;;
23561;SDS011;11959;49.418;8.728;2023-05-07T07:37:46;2.38;;;1.60;;
23561;SDS011;11959;49.418;8.728;2023-05-07T07:40:14;2.22;;;1.50;;
23561;SDS011;11959;49.418;8.728;2023-05-07T07:42:40;2.38;;;1.30;;
23561;SDS011;11959;49.418;8.728;2023-05-07T07:45:06;3.35;;;1.50;;
23561;SDS011;11959;49.418;8.728;2023-05-07T07:47:32;2.25;;;1.52;;
23561;SDS011;11959;49.418;8.728;2023-05-07T07:49:58;2.90;;;1.52;;
23561;SDS011;11959;49.418;8.728;2023-05-07T07:52:24;2.10;;;1.40;;
23561;SDS011;11959;49.418;8.728;2023-05-07T07:54:50;5.05;;;2.00;;
23561;SDS011;11959;49.418;8.728;2023-05-07T07:57:15;2.10;;;1.35;;
23561;SDS011;11959;49.418;8.728;2023-05-07T07:59:41;3.20;;;1.63;;
23561;SDS011;11959;49.418;8.728;2023-05-07T08:02:08;2.00;;;1.50;;
23561;SDS011;11959;49.418;8.728;2023-05-07T08:04:34;2.58;;;1.35;;
23561;SDS011;11959;49.418;8.728;2023-05-07T08:07:00;2.30;;;1.50;;
23561;SDS011;11959;49.418;8.728;2023-05-07T08:09:26;4.18;;;1.50;;
23561;SDS011;11959;49.418;8.728;2023-05-07T08:11:52;1.65;;;1.30;;
23561;SDS011;11959;49.418;8.728;2023-05-07T08:14:18;2.95;;;1.50;;
23561;SDS011;11959;49.418;8.728;2023-05-07T08:16:44;3.53;;;1.40;;
23561;SDS011;11959;49.418;8.728;2023-05-07T08:19:10;2.40;;;1.40;;
23561;SDS011;11959;49.418;8.728;2023-05-07T08:21:38;2.58;;;1.52;;
23561;SDS011;11959;49.418;8.728;2023-05-07T08:24:04;2.10;;;1.48;;
23561;SDS011;11959;49.418;8.728;2023-05-07T08:26:30;1.73;;;1.40;;
23561;SDS011;11959;49.418;8.728;2023-05-07T08:28:56;2.47;;;1.50;;
23561;SDS011;11959;49.418;8.728;2023-05-07T08:31:22;4.07;;;1.63;;
23561;SDS011;11959;49.418;8.728;2023-05-07T08:33:48;2.47;;;1.67;;
23561;SDS011;11959;49.418;8.728;2023-05-07T08:36:15;2.03;;;1.30;;
23561;SDS011;11959;49.418;8.728;2023-05-07T08:38:41;2.60;;;1.50;;
23561;SDS011;11959;49.418;8.728;2023-05-07T08:41:09;1.95;;;1.50;;
23561;SDS011;11959;49.418;8.728;2023-05-07T08:43:36;2.90;;;1.65;;
23561;SDS011;11959;49.418;8.728;2023-05-07T08:46:03;2.40;;;1.60;;
23561;SDS011;11959;49.418;8.728;2023-05-07T08:48:30;1.85;;;1.38;;
23561;SDS011;11959;49.418;8.728;2023-05-07T08:50:58;3.13;;;1.42;;
23561;SDS011;11959;49.418;8.728;2023-05-07T08:53:24;3.90;;;1.70;;
23561;SDS011;11959;49.418;8.728;2023-05-07T08:55:50;2.08;;;1.60;;
23561;SDS011;11959;49.418;8.728;2023-05-07T08:58:17;2.53;;;1.40;;
23561;SDS011;11959;49.418;8.728;2023-05-07T09:00:43;2.75;;;1.60;;
23561;SDS011;11959;49.418;8.728;2023-05-07T09:03:09;2.55;;;1.58;;
23561;SDS011;11959;49.418;8.728;2023-05-07T09:05:37;2.10;;;1.58;;
23561;SDS011;11959;49.418;8.728;2023-05-07T09:08:03;2.10;;;1.33;;
23561;SDS011;11959;49.418;8.728;2023-05-07T09:10:31;3.60;;;1.63;;
23561;SDS011;11959;49.418;8.728;2023-05-07T09:12:58;3.13;;;1.52;;
23561;SDS011;11959;49.418;8.728;2023-05-07T09:15:24;2.38;;;1.30;;
23561;SDS011;11959;49.418;8.728;2023-05-07T09:17:51;1.75;;;1.60;;
23561;SDS011;11959;49.418;8.728;2023-05-07T09:20:16;2.55;;;1.30;;
23561;SDS011;11959;49.418;8.728;2023-05-07T09:22:42;2.33;;;1.50;;
23561;SDS011;11959;49.418;8.728;2023-05-07T09:25:09;2.42;;;1.40;;
23561;SDS011;11959;49.418;8.728;2023-05-07T09:27:35;2.67;;;1.73;;
23561;SDS011;11959;49.418;8.728;2023-05-07T09:30:07;2.50;;;1.73;;
23561;SDS011;11959;49.418;8.728;2023-05-07T09:32:37;3.00;;;1.60;;
23561;SDS011;11959;49.418;8.728;2023-05-07T09:35:05;3.13;;;1.70;;
23561;SDS011;11959;49.418;8.728;2023-05-07T09:37:40;1.80;;;1.70;;
23561;SDS011;11959;49.418;8.728;2023-05-07T09:40:08;2.15;;;1.70;;
23561;SDS011;11959;49.418;8.728;2023-05-07T09:42:45;2.30;;;1.65;;
23561;SDS011;11959;49.418;8.728;2023-05-07T09:45:12;2.08;;;1.50;;
23561;SDS011;11959;49.418;8.728;2023-05-07T09:47:38;2.38;;;1.70;;
23561;SDS011;11959;49.418;8.728;2023-05-07T09:50:06;2.00;;;1.80;;
23561;SDS011;11959;49.418;8.728;2023-05-07T09:52:35;2.47;;;1.85;;
23561;SDS011;11959;49.418;8.728;2023-05-07T09:55:01;3.90;;;2.15;;
23561;SDS011;11959;49.418;8.728;2023-05-07T09:57:28;2.67;;;1.75;;
23561;SDS011;11959;49.418;8.728;2023-05-07T09:59:56;4.07;;;2.10;;
23561;SDS011;11959;49.418;8.728;2023-05-07T10:02:23;3.60;;;1.90;;
23561;SDS011;11959;49.418;8.728;2023-05-07T10:04:50;2.20;;;1.90;;
23561;SDS011;11959;49.418;8.728;2023-05-07T10:07:17;2.22;;;1.70;;
23561;SDS011;11959;49.418;8.728;2023-05-07T10:09:45;2.45;;;1.98;;
23561;SDS011;11959;49.418;8.728;2023-05-07T10:12:12;2.22;;;1.73;;
23561;SDS011;11959;49.418;8.728;2023-05-07T10:14:38;2.97;;;1.95;;
23561;SDS011;11959;49.418;8.728;2023-05-07T10:17:04;2.58;;;1.92;;
23561;SDS011;11959;49.418;8.728;2023-05-07T10:19:30;3.63;;;1.85;;
23561;SDS011;11959;49.418;8.728;2023-05-07T10:22:02;2.63;;;1.83;;
23561;SDS011;11959;49.418;8.728;2023-05-07T10:24:33;2.05;;;1.67;;
23561;SDS011;11959;49.418;8.728;2023-05-07T10:27:02;1.73;;;1.63;;
23561;SDS011;11959;49.418;8.728;2023-05-07T10:29:42;2.58;;;1.80;;
23561;SDS011;11959;49.418;8.728;2023-05-07T10:35:14;3.55;;;1.63;;
23561;SDS011;11959;49.418;8.728;2023-05-07T10:37:44;2.53;;;1.50;;
23561;SDS011;11959;49.418;8.728;2023-05-07T10:40:11;2.45;;;1.55;;
23561;SDS011;11959;49.418;8.728;2023-05-07T10:42:37;2.25;;;1.80;;
23561;SDS011;11959;49.418;8.728;2023-05-07T10:45:21;2.97;;;1.88;;
23561;SDS011;11959;49.418;8.728;2023-05-07T10:50:36;2.63;;;1.58;;
23561;SDS011;11959;49.418;8.728;2023-05-07T10:55:46;2.08;;;1.55;;
23561;SDS011;11959;49.418;8.728;2023-05-07T10:58:27;2.03;;;1.40;;
23561;SDS011;11959;49.418;8.728;2023-05-07T11:03:23;2.75;;;1.30;;
23561;SDS011;11959;49.418;8.728;2023-05-07T11:06:08;2.83;;;1.48;;
23561;SDS011;11959;49.418;8.728;2023-05-07T11:11:18;2.80;;;1.50;;
23561;SDS011;11959;49.418;8.728;2023-05-07T11:13:47;2.70;;;1.38;;
23561;SDS011;11959;49.418;8.728;2023-05-07T11:16:21;2.13;;;1.25;;
23561;SDS011;11959;49.418;8.728;2023-05-07T11:18:53;1.85;;;1.10;;
23561;SDS011;11959;49.418;8.728;2023-05-07T11:21:39;2.55;;;1.45;;
23561;SDS011;11959;49.418;8.728;2023-05-07T11:24:07;2.28;;;1.40;;
23561;SDS011;11959;49.418;8.728;2023-05-07T11:26:44;2.63;;;1.45;;
23561;SDS011;11959;49.418;8.728;2023-05-07T11:29:11;1.77;;;1.38;;
23561;SDS011;11959;49.418;8.728;2023-05-07T11:31:37;2.55;;;1.10;;
23561;SDS011;11959;49.418;8.728;2023-05-07T11:34:03;1.20;;;1.10;;
23561;SDS011;11959;49.418;8.728;2023-05-07T11:36:30;1.58;;;1.10;;
23561;SDS011;11959;49.418;8.728;2023-05-07T11:38:57;2.13;;;1.30;;
23561;SDS011;11959;49.418;8.728;2023-05-07T11:41:32;2.05;;;1.30;;
23561;SDS011;11959;49.418;8.728;2023-05-07T11:43:59;2.20;;;1.40;;
23561;SDS011;11959;49.418;8.728;2023-05-07T11:46:26;2.20;;;1.40;;
23561;SDS011;11959;49.418;8.728;2023-05-07T11:48:52;2.58;;;1.23;;
23561;SDS011;11959;49.418;8.728;2023-05-07T11:51:19;2.10;;;1.50;;
23561;SDS011;11959;49.418;8.728;2023-05-07T11:53:49;2.45;;;1.40;;
23561;SDS011;11959;49.418;8.728;2023-05-07T11:56:16;2.80;;;1.58;;
23561;SDS011;11959;49.418;8.728;2023-05-07T11:58:43;2.17;;;1.60;;
23561;SDS011;11959;49.418;8.728;2023-05-07T12:01:10;3.92;;;1.60;;
23561;SDS011;11959;49.418;8.728;2023-05-07T12:03:39;2.28;;;1.50;;
23561;SDS011;11959;49.418;8.728;2023-05-07T12:06:07;2.80;;;1.70;;
23561;SDS011;11959;49.418;8.728;2023-05-07T12:08:35;2.97;;;1.80;;
23561;SDS011;11959;49.418;8.728;2023-05-07T12:11:03;3.10;;;1.83;;
23561;SDS011;11959;49.418;8.728;2023-05-07T12:13:31;2.20;;;1.65;;
23561;SDS011;11959;49.418;8.728;2023-05-07T12:15:57;2.83;;;1.52;;
23561;SDS011;11959;49.418;8.728;2023-05-07T12:18:23;2.15;;;1.60;;
23561;SDS011;11959;49.418;8.728;2023-05-07T12:20:52;2.40;;;1.50;;
23561;SDS011;11959;49.418;8.728;2023-05-07T12:23:18;1.88;;;1.70;;
23561;SDS011;11959;49.418;8.728;2023-05-07T12:25:45;3.40;;;1.60;;
23561;SDS011;11959;49.418;8.728;2023-05-07T12:28:14;1.98;;;1.77;;
23561;SDS011;11959;49.418;8.728;2023-05-07T12:30:42;1.88;;;1.60;;
23561;SDS011;11959;49.418;8.728;2023-05-07T12:33:16;2.17;;;1.65;;
23561;SDS011;11959;49.418;8.728;2023-05-07T12:35:42;2.55;;;1.90;;
23561;SDS011;11959;49.418;8.728;2023-05-07T12:38:12;3.92;;;1.77;;
23561;SDS011;11959;49.418;8.728;2023-05-07T12:40:40;3.40;;;1.83;;
23561;SDS011;11959;49.418;8.728;2023-05-07T12:43:17;2.25;;;1.80;;
23561;SDS011;11959;49.418;8.728;2023-05-07T12:45:44;3.03;;;1.90;;
23561;SDS011;11959;49.418;8.728;2023-05-07T12:48:11;2.53;;;1.90;;
23561;SDS011;11959;49.418;8.728;2023-05-07T12:50:37;1.85;;;1.60;;
23561;SDS011;11959;49.418;8.728;2023-05-07T12:53:03;2.33;;;1.85;;
23561;SDS011;11959;49.418;8.728;2023-05-07T12:55:40;3.10;;;1.88;;
23561;SDS011;11959;49.418;8.728;2023-05-07T12:58:07;2.40;;;1.92;;
23561;SDS011;11959;49.418;8.728;2023-05-07T13:00:34;2.75;;;1.95;;
23561;SDS011;11959;49.418;8.728;2023-05-07T13:03:03;1.92;;;1.70;;
23561;SDS011;11959;49.418;8.728;2023-05-07T13:05:30;2.15;;;1.95;;
23561;SDS011;11959;49.418;8.728;2023-05-07T13:07:56;2.63;;;1.88;;
23561;SDS011;11959;49.418;8.728;2023-05-07T13:10:22;3.15;;;1.60;;
23561;SDS011;11959;49.418;8.728;2023-05-07T13:12:48;3.13;;;2.08;;
23561;SDS011;11959;49.418;8.728;2023-05-07T13:15:14;2.92;;;1.83;;
23561;SDS011;11959;49.418;8.728;2023-05-07T13:17:40;2.92;;;1.77;;
23561;SDS011;11959;49.418;8.728;2023-05-07T13:20:06;4.07;;;2.05;;
23561;SDS011;11959;49.418;8.728;2023-05-07T13:22:33;2.75;;;2.08;;
23561;SDS011;11959;49.418;8.728;2023-05-07T13:24:59;3.67;;;2.40;;
23561;SDS011;11959;49.418;8.728;2023-05-07T13:27:25;2.15;;;1.95;;
23561;SDS011;11959;49.418;8.728;2023-05-07T13:29:51;2.88;;;1.75;;
23561;SDS011;11959;49.418;8.728;2023-05-07T13:32:16;3.20;;;1.85;;
23561;SDS011;11959;49.418;8.728;2023-05-07T13:34:42;2.22;;;1.90;;
23561;SDS011;11959;49.418;8.728;2023-05-07T13:37:08;4.03;;;2.00;;
23561;SDS011;11959;49.418;8.728;2023-05-07T13:39:33;2.63;;;2.10;;
23561;SDS011;11959;49.418;8.728;2023-05-07T13:41:59;3.15;;;2.10;;
23561;SDS011;11959;49.418;8.728;2023-05-07T13:44:26;2.35;;;2.15;;
23561;SDS011;11959;49.418;8.728;2023-05-07T13:46:51;2.65;;;2.28;;
23561;SDS011;11959;49.418;8.728;2023-05-07T13:49:17;2.72;;;2.30;;
23561;SDS011;11959;49.418;8.728;2023-05-07T13:51:43;2.40;;;1.90;;
23561;SDS011;11959;49.418;8.728;2023-05-07T13:54:08;2.85;;;2.00;;
23561;SDS011;11959;49.418;8.728;2023-05-07T13:56:34;6.30;;;2.35;;
23561;SDS011;11959;49.418;8.728;2023-05-07T13:59:00;2.30;;;2.10;;
23561;SDS011;11959;49.418;8.728;2023-05-07T14:01:26;4.03;;;2.05;;
23561;SDS011;11959;49.418;8.728;2023-05-07T14:03:52;6.10;;;2.47;;
23561;SDS011;11959;49.418;8.728;2023-05-07T14:06:17;7.25;;;3.55;;
23561;SDS011;11959;49.418;8.728;2023-05-07T14:08:43;13.57;;;4.50;;
23561;SDS011;11959;49.418;8.728;2023-05-07T14:11:09;9.27;;;3.95;;
23561;SDS011;11959;49.418;8.728;2023-05-07T14:13:34;11.30;;;4.53;;
23561;SDS011;11959;49.418;8.728;2023-05-07T14:16:00;7.75;;;4.18;;
23561;SDS011;11959;49.418;8.728;2023-05-07T14:18:26;7.43;;;4.03;;
23561;SDS011;11959;49.418;8.728;2023-05-07T14:20:53;10.43;;;4.70;;
23561;SDS011;11959;49.418;8.728;2023-05-07T14:23:19;11.27;;;4.82;;
23561;SDS011;11959;49.418;8.728;2023-05-07T14:25:50;8.82;;;4.43;;
23561;SDS011;11959;49.418;8.728;2023-05-07T14:28:16;8.35;;;5.68;;
23561;SDS011;11959;49.418;8.728;2023-05-07T14:30:41;12.75;;;5.10;;
23561;SDS011;11959;49.418;8.728;2023-05-07T14:33:07;7.57;;;4.85;;
23561;SDS011;11959;49.418;8.728;2023-05-07T14:35:33;6.00;;;4.13;;
23561;SDS011;11959;49.418;8.728;2023-05-07T14:38:02;8.13;;;4.10;;
23561;SDS011;11959;49.418;8.728;2023-05-07T14:40:30;8.00;;;3.38;;
23561;SDS011;11959;49.418;8.728;2023-05-07T14:42:56;4.97;;;2.92;;
23561;SDS011;11959;49.418;8.728;2023-05-07T14:45:23;4.38;;;2.53;;
23561;SDS011;11959;49.418;8.728;2023-05-07T14:47:50;8.77;;;3.20;;
23561;SDS011;11959;49.418;8.728;2023-05-07T14:50:15;12.65;;;4.38;;
23561;SDS011;11959;49.418;8.728;2023-05-07T14:52:41;9.23;;;2.85;;
23561;SDS011;11959;49.418;8.728;2023-05-07T14:55:07;10.45;;;3.10;;
23561;SDS011;11959;49.418;8.728;2023-05-07T14:57:33;7.75;;;3.35;;
23561;SDS011;11959;49.418;8.728;2023-05-07T15:00:03;15.88;;;5.25;;